createdAt,value
2019-03-16T00:00:28.783Z,98988
2019-03-16T00:05:28.760Z,98978
2019-03-16T00:10:28.795Z,98969
2019-03-16T00:15:28.781Z,98984
2019-03-16T00:20:28.806Z,98989
2019-03-16T00:25:28.799Z,98985
2019-03-16T00:30:28.815Z,98999
2019-03-16T00:35:28.771Z,99000
2019-03-16T00:40:28.813Z,99006
2019-03-16T00:45:28.817Z,99008
2019-03-16T00:50:28.780Z,99016
2019-03-16T00:55:28.927Z,98996
2019-03-16T01:00:28.808Z,99009
2019-03-16T01:05:28.819Z,99039
2019-03-16T01:10:28.832Z,99032
2019-03-16T01:15:28.821Z,99040
2019-03-16T01:20:28.795Z,99041
2019-03-16T01:25:28.842Z,99026
2019-03-16T01:30:28.828Z,99038
2019-03-16T01:35:28.840Z,99032
2019-03-16T01:40:28.855Z,99051
2019-03-16T01:45:28.838Z,99059
2019-03-16T01:50:28.838Z,99062
2019-03-16T01:55:28.825Z,99070
2019-03-16T02:00:28.857Z,99058
2019-03-16T02:05:28.810Z,99078
2019-03-16T02:10:28.857Z,99072
2019-03-16T02:15:28.867Z,99072
2019-03-16T02:20:28.815Z,99094
2019-03-16T02:25:28.855Z,99086
2019-03-16T02:30:28.865Z,99098
2019-03-16T02:35:28.825Z,99106
2019-03-16T02:40:28.881Z,99102
2019-03-16T02:45:28.872Z,99132
2019-03-16T02:50:28.865Z,99122
2019-03-16T02:55:28.893Z,99129
2019-03-16T03:00:28.875Z,99145
2019-03-16T03:05:28.885Z,99154
2019-03-16T03:10:28.877Z,99147
2019-03-16T03:15:28.898Z,99158
2019-03-16T03:20:28.880Z,99165
2019-03-16T03:25:28.887Z,99176
2019-03-16T03:30:28.898Z,99166
2019-03-16T03:35:29.486Z,99186
2019-03-16T03:40:28.930Z,99182
2019-03-16T03:45:28.900Z,99197
2019-03-16T03:50:28.886Z,99186
2019-03-16T03:55:28.915Z,99188
2019-03-16T04:00:28.911Z,99198
2019-03-16T04:05:28.920Z,99203
2019-03-16T04:10:28.915Z,99226
2019-03-16T04:15:28.908Z,99229
2019-03-16T04:20:28.916Z,99234
2019-03-16T04:25:28.933Z,99237
2019-03-16T04:30:28.907Z,99253
2019-03-16T04:35:28.925Z,99259
2019-03-16T04:40:28.931Z,99269
2019-03-16T04:45:28.924Z,99264
2019-03-16T04:50:28.891Z,99258
2019-03-16T04:55:28.921Z,99275
2019-03-16T05:00:28.932Z,99279
2019-03-16T05:05:28.939Z,99262
2019-03-16T05:10:28.932Z,99269
2019-03-16T05:15:28.903Z,99277
2019-03-16T05:20:28.887Z,99291
2019-03-16T05:25:28.940Z,99297
2019-03-16T05:30:28.948Z,99310
2019-03-16T05:35:28.932Z,99314
2019-03-16T05:40:28.941Z,99318
2019-03-16T05:45:28.914Z,99336
2019-03-16T05:50:28.960Z,99336
2019-03-16T05:55:28.951Z,99334
2019-03-16T06:00:28.963Z,99348
2019-03-16T06:05:28.936Z,99341
2019-03-16T06:10:28.959Z,99350
2019-03-16T06:15:28.965Z,99347
2019-03-16T06:20:28.966Z,99365
2019-03-16T06:25:28.941Z,99367
2019-03-16T06:30:28.927Z,99384
2019-03-16T06:35:29.459Z,99379
2019-03-16T06:40:28.959Z,99385
2019-03-16T06:45:28.971Z,99392
2019-03-16T06:50:28.980Z,99400
2019-03-16T06:55:28.979Z,99396
2019-03-16T07:00:28.973Z,99404
2019-03-16T07:05:37.951Z,99391
2019-03-16T07:10:28.994Z,99403
2019-03-16T07:15:28.991Z,99390
2019-03-16T07:20:28.956Z,99394
2019-03-16T07:25:28.987Z,99399
2019-03-16T07:30:28.957Z,99403
2019-03-16T07:35:28.996Z,99401
2019-03-16T07:40:28.986Z,99413
2019-03-16T07:45:29.009Z,99421
2019-03-16T07:50:28.973Z,99412
2019-03-16T07:55:28.995Z,99419
2019-03-16T08:00:29.009Z,99415
2019-03-16T08:05:29.001Z,99404
2019-03-16T08:10:29.022Z,99410
2019-03-16T08:15:28.982Z,99412
2019-03-16T08:20:31.408Z,99417
2019-03-16T08:25:29.010Z,99421
2019-03-16T08:30:29.024Z,99436
2019-03-16T08:35:29.027Z,99443
2019-03-16T08:40:29.026Z,99455
2019-03-16T08:45:29.027Z,99466
2019-03-16T08:50:29.023Z,99472
2019-03-16T08:55:29.037Z,99477
2019-03-16T09:00:29.024Z,99479
2019-03-16T09:05:29.031Z,99497
2019-03-16T09:10:29.046Z,99498
2019-03-16T09:15:29.036Z,99508
2019-03-16T09:20:29.048Z,99509
2019-03-16T09:25:29.032Z,99505
2019-03-16T09:30:29.060Z,99501
2019-03-16T09:35:29.056Z,99497
2019-03-16T09:40:29.050Z,99515
2019-03-16T09:45:29.055Z,99500
2019-03-16T09:50:29.044Z,99495
2019-03-16T09:55:29.020Z,99497
2019-03-16T10:00:29.057Z,99500
2019-03-16T10:05:29.018Z,99508
2019-03-16T10:10:29.060Z,99503
2019-03-16T10:15:29.077Z,99500
2019-03-16T10:20:29.066Z,99505
2019-03-16T10:25:29.065Z,99493
2019-03-16T10:30:29.085Z,99493
2019-03-16T10:35:29.068Z,99487
2019-03-16T10:40:29.107Z,99488
2019-03-16T10:45:29.076Z,99474
2019-03-16T10:50:29.094Z,99474
2019-03-16T10:55:29.075Z,99480
2019-03-16T11:00:29.099Z,99476
2019-03-16T11:05:29.101Z,99468
2019-03-16T11:10:29.088Z,99458
2019-03-16T11:15:29.091Z,99455
2019-03-16T11:20:29.094Z,99456
2019-03-16T11:25:29.082Z,99432
2019-03-16T11:30:29.112Z,99426
2019-03-16T11:35:29.092Z,99417
2019-03-16T11:40:29.109Z,99405
2019-03-16T11:45:29.101Z,99392
2019-03-16T11:50:29.134Z,99383
2019-03-16T11:55:29.119Z,99379
2019-03-16T12:00:29.136Z,99369
2019-03-16T12:05:29.103Z,99350
2019-03-16T12:10:29.130Z,99333
2019-03-16T12:15:29.113Z,99331
2019-03-16T12:20:29.121Z,99323
2019-03-16T12:25:29.123Z,99289
2019-03-16T12:30:29.134Z,99286
2019-03-16T12:35:29.087Z,99265
2019-03-16T12:40:29.139Z,99264
2019-03-16T12:45:29.145Z,99241
2019-03-16T12:50:29.154Z,99222
2019-03-16T12:55:29.130Z,99218
2019-03-16T13:00:29.096Z,99220
2019-03-16T13:05:29.154Z,99196
2019-03-16T13:10:29.142Z,99189
2019-03-16T13:15:29.143Z,99167
2019-03-16T13:20:29.135Z,99167
2019-03-16T13:25:29.155Z,99166
2019-03-16T13:30:29.163Z,99154
2019-03-16T13:35:29.153Z,99152
2019-03-16T13:40:29.154Z,99143
2019-03-16T13:45:29.158Z,99137
2019-03-16T13:50:29.161Z,99136
2019-03-16T13:55:29.159Z,99134
2019-03-16T14:00:29.165Z,99133
2019-03-16T14:05:29.174Z,99115
2019-03-16T14:10:29.164Z,99111
2019-03-16T14:15:29.164Z,99103
2019-03-16T14:20:29.189Z,99114
2019-03-16T14:25:29.176Z,99101
2019-03-16T14:30:40.142Z,99087
2019-03-16T14:35:29.186Z,99083
2019-03-16T14:40:29.259Z,99082
2019-03-16T14:45:29.194Z,99082
2019-03-16T14:50:29.184Z,99068
2019-03-16T14:55:29.201Z,99071
2019-03-16T15:00:38.089Z,99049
2019-03-16T15:05:29.182Z,99054
2019-03-16T15:10:29.194Z,99058
2019-03-16T15:15:29.209Z,99051
2019-03-16T15:20:29.166Z,99037
2019-03-16T15:25:29.213Z,99034
2019-03-16T15:30:29.207Z,99041
2019-03-16T15:35:29.202Z,99026
2019-03-16T15:40:29.213Z,99032
2019-03-16T15:45:29.224Z,99026
2019-03-16T15:50:29.220Z,99027
2019-03-16T15:55:29.213Z,99009
2019-03-16T16:00:29.210Z,99019
2019-03-16T16:05:29.221Z,99041
2019-03-16T16:10:29.231Z,99057
2019-03-16T16:15:29.236Z,99051
2019-03-16T16:20:29.227Z,99040
2019-03-16T16:25:29.237Z,99038
2019-03-16T16:30:29.201Z,99050
2019-03-16T16:35:29.230Z,99039
2019-03-16T16:40:29.235Z,99029
2019-03-16T16:45:29.232Z,99036
2019-03-16T16:50:29.261Z,99025
2019-03-16T16:55:29.329Z,99015
2019-03-16T17:00:29.248Z,99011
2019-03-16T17:05:29.206Z,99031
2019-03-16T17:10:29.259Z,99021
2019-03-16T17:15:29.309Z,99027
2019-03-16T17:20:29.260Z,99035
2019-03-16T17:25:29.260Z,99024
2019-03-16T17:30:29.264Z,99013
2019-03-16T17:35:29.259Z,99024
2019-03-16T17:40:29.254Z,99023
2019-03-16T17:45:29.286Z,99026
2019-03-16T17:50:29.258Z,99024
2019-03-16T17:55:29.268Z,99024
2019-03-16T18:00:29.282Z,99023
2019-03-16T18:05:29.275Z,99020
2019-03-16T18:10:29.273Z,99019
2019-03-16T18:15:29.258Z,99022
2019-03-16T18:20:29.293Z,99036
2019-03-16T18:25:29.271Z,99048
2019-03-16T18:30:29.296Z,99039
2019-03-16T18:35:29.291Z,99043
2019-03-16T18:40:29.293Z,99031
2019-03-16T18:45:29.293Z,99054
2019-03-16T18:50:29.285Z,99044
2019-03-16T18:55:29.302Z,99050
2019-03-16T19:00:29.312Z,99044
2019-03-16T19:05:29.300Z,99067
2019-03-16T19:10:29.319Z,99059
2019-03-16T19:15:29.307Z,99064
2019-03-16T19:20:29.330Z,99066
2019-03-16T19:25:29.302Z,99087
2019-03-16T19:30:29.331Z,99085
2019-03-16T19:35:29.279Z,99074
2019-03-16T19:40:29.311Z,99058
2019-03-16T19:45:29.316Z,99043
2019-03-16T19:50:29.327Z,99047
2019-03-16T19:55:29.320Z,99055
2019-03-16T20:00:29.288Z,99030
2019-03-16T20:05:29.349Z,99021
2019-03-16T20:10:29.422Z,99024
2019-03-16T20:15:29.327Z,99030
2019-03-16T20:20:29.335Z,99037
2019-03-16T20:25:29.327Z,99023
2019-03-16T20:30:29.349Z,99005
2019-03-16T20:35:29.348Z,98999
2019-03-16T20:40:29.354Z,99008
2019-03-16T20:45:29.427Z,99020
2019-03-16T20:50:29.351Z,99037
2019-03-16T20:55:29.486Z,99027
2019-03-16T21:00:29.323Z,99044
2019-03-16T21:05:29.362Z,99034
2019-03-16T21:10:29.366Z,99036
2019-03-16T21:15:29.352Z,99033
2019-03-16T21:20:29.369Z,99031
2019-03-16T21:25:29.327Z,99021
2019-03-16T21:30:29.368Z,99015
2019-03-16T21:35:29.380Z,99024
2019-03-16T21:40:29.375Z,99023
2019-03-16T21:45:29.337Z,99018
2019-03-16T21:50:29.372Z,99018
2019-03-16T21:55:29.387Z,99023
2019-03-16T22:00:29.336Z,99025
2019-03-16T22:05:29.382Z,99016
2019-03-16T22:10:29.343Z,99026
2019-03-16T22:15:29.374Z,99022
2019-03-16T22:20:29.380Z,99034
2019-03-16T22:25:29.398Z,99037
2019-03-16T22:30:29.395Z,99031
2019-03-16T22:35:29.389Z,99039
2019-03-16T22:40:29.426Z,99044
2019-03-16T22:45:29.416Z,99032
2019-03-16T22:50:29.394Z,99026
2019-03-16T22:55:29.408Z,99022
2019-03-16T23:00:29.392Z,99033
2019-03-16T23:05:29.397Z,99018
2019-03-16T23:10:29.420Z,99014
2019-03-16T23:15:29.403Z,99008
2019-03-16T23:20:29.415Z,98997
2019-03-16T23:25:29.407Z,98989
2019-03-16T23:30:29.430Z,98997
2019-03-16T23:35:29.420Z,98993
2019-03-16T23:40:29.424Z,98986
2019-03-16T23:45:29.439Z,98989
2019-03-16T23:50:29.445Z,98975
2019-03-16T23:55:29.397Z,98973
